sensor_id;sensor_type;location;lat;lon;timestamp;P1;durP1;ratioP1;P2;durP2;ratioP2
63653;SDS011;49809;47.418;19.080;2024-02-26T00:03:30;17.20;;;9.35;;
63653;SDS011;49809;47.418;19.080;2024-02-26T00:06:55;17.25;;;8.73;;
63653;SDS011;49809;47.418;19.080;2024-02-26T00:14:01;16.87;;;8.73;;
63653;SDS011;49809;47.418;19.080;2024-02-26T00:25:13;14.90;;;8.40;;
63653;SDS011;49809;47.418;19.080;2024-02-26T00:29:01;16.08;;;7.97;;
63653;SDS011;49809;47.418;19.080;2024-02-26T00:36:00;13.55;;;8.02;;
63653;SDS011;49809;47.418;19.080;2024-02-26T00:50:57;15.00;;;8.27;;
63653;SDS011;49809;47.418;19.080;2024-02-26T00:58:11;18.83;;;8.40;;
63653;SDS011;49809;47.418;19.080;2024-02-26T02:10:53;18.73;;;10.32;;
63653;SDS011;49809;47.418;19.080;2024-02-26T02:14:28;17.83;;;10.13;;
63653;SDS011;49809;47.418;19.080;2024-02-26T02:21:41;19.58;;;9.93;;
63653;SDS011;49809;47.418;19.080;2024-02-26T07:18:52;20.92;;;9.90;;
63653;SDS011;49809;47.418;19.080;2024-02-26T07:22:14;19.98;;;10.32;;
63653;SDS011;49809;47.418;19.080;2024-02-26T07:25:51;21.70;;;10.43;;
63653;SDS011;49809;47.418;19.080;2024-02-26T07:30:03;19.95;;;10.73;;
63653;SDS011;49809;47.418;19.080;2024-02-26T07:38:09;20.00;;;10.50;;
63653;SDS011;49809;47.418;19.080;2024-02-26T07:41:33;17.85;;;10.55;;
63653;SDS011;49809;47.418;19.080;2024-02-26T07:45:43;20.17;;;10.73;;
63653;SDS011;49809;47.418;19.080;2024-02-26T07:49:10;18.65;;;10.38;;
63653;SDS011;49809;47.418;19.080;2024-02-26T07:56:24;21.37;;;10.43;;
63653;SDS011;49809;47.418;19.080;2024-02-26T07:59:49;16.73;;;9.98;;
63653;SDS011;49809;47.418;19.080;2024-02-26T08:03:42;16.02;;;10.00;;
63653;SDS011;49809;47.418;19.080;2024-02-26T08:07:15;17.20;;;10.25;;
63653;SDS011;49809;47.418;19.080;2024-02-26T08:10:43;17.42;;;11.00;;
63653;SDS011;49809;47.418;19.080;2024-02-26T08:14:14;18.42;;;10.40;;
63653;SDS011;49809;47.418;19.080;2024-02-26T08:17:49;20.33;;;11.12;;
63653;SDS011;49809;47.418;19.080;2024-02-26T08:21:53;16.90;;;10.52;;
63653;SDS011;49809;47.418;19.080;2024-02-26T08:25:01;16.92;;;11.23;;
63653;SDS011;49809;47.418;19.080;2024-02-26T08:28:14;19.87;;;11.98;;
63653;SDS011;49809;47.418;19.080;2024-02-26T08:31:24;17.67;;;11.85;;
63653;SDS011;49809;47.418;19.080;2024-02-26T08:34:29;18.60;;;11.73;;
63653;SDS011;49809;47.418;19.080;2024-02-26T08:37:57;18.45;;;11.45;;
63653;SDS011;49809;47.418;19.080;2024-02-26T08:41:38;18.10;;;11.80;;
63653;SDS011;49809;47.418;19.080;2024-02-26T08:45:14;19.80;;;12.93;;
63653;SDS011;49809;47.418;19.080;2024-02-26T08:48:18;21.00;;;12.95;;
63653;SDS011;49809;47.418;19.080;2024-02-26T08:51:27;19.10;;;12.20;;
63653;SDS011;49809;47.418;19.080;2024-02-26T08:54:54;17.48;;;12.27;;
63653;SDS011;49809;47.418;19.080;2024-02-26T08:58:02;19.90;;;13.18;;
63653;SDS011;49809;47.418;19.080;2024-02-26T09:01:08;21.17;;;13.40;;
63653;SDS011;49809;47.418;19.080;2024-02-26T09:04:32;19.45;;;12.43;;
63653;SDS011;49809;47.418;19.080;2024-02-26T09:08:24;20.75;;;12.63;;
63653;SDS011;49809;47.418;19.080;2024-02-26T09:12:09;20.17;;;12.75;;
63653;SDS011;49809;47.418;19.080;2024-02-26T09:16:01;28.17;;;14.27;;
63653;SDS011;49809;47.418;19.080;2024-02-26T09:19:13;23.10;;;14.68;;
63653;SDS011;49809;47.418;19.080;2024-02-26T09:22:43;23.08;;;14.30;;
63653;SDS011;49809;47.418;19.080;2024-02-26T09:30:04;23.20;;;14.23;;
63653;SDS011;49809;47.418;19.080;2024-02-26T09:33:36;24.80;;;14.30;;
63653;SDS011;49809;47.418;19.080;2024-02-26T09:36:42;23.63;;;14.53;;
63653;SDS011;49809;47.418;19.080;2024-02-26T09:40:18;21.48;;;13.57;;
63653;SDS011;49809;47.418;19.080;2024-02-26T09:43:44;20.20;;;13.83;;
63653;SDS011;49809;47.418;19.080;2024-02-26T09:47:11;20.98;;;13.68;;
63653;SDS011;49809;47.418;19.080;2024-02-26T09:50:56;22.67;;;13.30;;
63653;SDS011;49809;47.418;19.080;2024-02-26T09:54:34;18.23;;;12.77;;
63653;SDS011;49809;47.418;19.080;2024-02-26T09:57:46;19.37;;;12.07;;
63653;SDS011;49809;47.418;19.080;2024-02-26T10:00:53;22.75;;;14.02;;
63653;SDS011;49809;47.418;19.080;2024-02-26T10:04:30;21.17;;;13.50;;
63653;SDS011;49809;47.418;19.080;2024-02-26T10:07:34;20.00;;;13.20;;
63653;SDS011;49809;47.418;19.080;2024-02-26T10:10:39;20.90;;;13.32;;
63653;SDS011;49809;47.418;19.080;2024-02-26T10:17:13;19.92;;;12.77;;
63653;SDS011;49809;47.418;19.080;2024-02-26T10:20:36;20.58;;;12.65;;
63653;SDS011;49809;47.418;19.080;2024-02-26T10:24:21;18.40;;;12.23;;
63653;SDS011;49809;47.418;19.080;2024-02-26T10:27:59;19.23;;;12.77;;
63653;SDS011;49809;47.418;19.080;2024-02-26T10:31:05;19.40;;;13.20;;
63653;SDS011;49809;47.418;19.080;2024-02-26T10:34:08;19.58;;;13.60;;
63653;SDS011;49809;47.418;19.080;2024-02-26T10:37:15;17.00;;;12.10;;
63653;SDS011;49809;47.418;19.080;2024-02-26T10:40:58;18.05;;;12.50;;
63653;SDS011;49809;47.418;19.080;2024-02-26T10:44:22;16.67;;;12.30;;
63653;SDS011;49809;47.418;19.080;2024-02-26T10:47:44;18.02;;;11.27;;
63653;SDS011;49809;47.418;19.080;2024-02-26T10:50:54;15.40;;;10.50;;
63653;SDS011;49809;47.418;19.080;2024-02-26T10:54:21;13.93;;;10.48;;
63653;SDS011;49809;47.418;19.080;2024-02-26T10:57:52;11.50;;;8.77;;
63653;SDS011;49809;47.418;19.080;2024-02-26T11:01:18;12.13;;;7.68;;
63653;SDS011;49809;47.418;19.080;2024-02-26T11:05:12;14.45;;;8.70;;
63653;SDS011;49809;47.418;19.080;2024-02-26T11:08:18;11.48;;;8.75;;
63653;SDS011;49809;47.418;19.080;2024-02-26T11:11:23;12.52;;;9.20;;
63653;SDS011;49809;47.418;19.080;2024-02-26T11:14:30;14.13;;;9.10;;
63653;SDS011;49809;47.418;19.080;2024-02-26T11:17:35;9.48;;;7.25;;
63653;SDS011;49809;47.418;19.080;2024-02-26T11:20:46;13.60;;;7.82;;
63653;SDS011;49809;47.418;19.080;2024-02-26T11:23:52;11.45;;;8.57;;
63653;SDS011;49809;47.418;19.080;2024-02-26T11:26:57;10.52;;;7.97;;
63653;SDS011;49809;47.418;19.080;2024-02-26T11:30:08;8.82;;;6.62;;
63653;SDS011;49809;47.418;19.080;2024-02-26T11:33:14;8.55;;;6.45;;
63653;SDS011;49809;47.418;19.080;2024-02-26T11:36:19;8.63;;;6.10;;
63653;SDS011;49809;47.418;19.080;2024-02-26T11:39:23;7.75;;;5.47;;
63653;SDS011;49809;47.418;19.080;2024-02-26T11:42:30;8.23;;;5.18;;
63653;SDS011;49809;47.418;19.080;2024-02-26T11:48:43;8.75;;;5.60;;
63653;SDS011;49809;47.418;19.080;2024-02-26T11:51:50;7.70;;;5.62;;
63653;SDS011;49809;47.418;19.080;2024-02-26T11:54:57;7.37;;;4.82;;
63653;SDS011;49809;47.418;19.080;2024-02-26T12:01:04;8.70;;;5.45;;
63653;SDS011;49809;47.418;19.080;2024-02-26T12:04:22;9.02;;;5.47;;
63653;SDS011;49809;47.418;19.080;2024-02-26T12:07:29;7.93;;;5.35;;
63653;SDS011;49809;47.418;19.080;2024-02-26T12:10:33;7.25;;;5.40;;
63653;SDS011;49809;47.418;19.080;2024-02-26T12:13:45;6.97;;;5.25;;
63653;SDS011;49809;47.418;19.080;2024-02-26T12:16:55;6.20;;;4.15;;
63653;SDS011;49809;47.418;19.080;2024-02-26T12:20:10;7.32;;;5.05;;
63653;SDS011;49809;47.418;19.080;2024-02-26T12:23:19;7.15;;;4.72;;
63653;SDS011;49809;47.418;19.080;2024-02-26T12:26:27;7.10;;;4.70;;
63653;SDS011;49809;47.418;19.080;2024-02-26T12:29:33;6.23;;;4.43;;
63653;SDS011;49809;47.418;19.080;2024-02-26T12:32:38;6.55;;;3.95;;
63653;SDS011;49809;47.418;19.080;2024-02-26T12:35:41;6.18;;;4.12;;
63653;SDS011;49809;47.418;19.080;2024-02-26T12:38:50;6.60;;;4.55;;
63653;SDS011;49809;47.418;19.080;2024-02-26T12:41:54;7.18;;;3.92;;
63653;SDS011;49809;47.418;19.080;2024-02-26T12:44:57;8.48;;;4.65;;
63653;SDS011;49809;47.418;19.080;2024-02-26T12:48:00;5.53;;;4.20;;
63653;SDS011;49809;47.418;19.080;2024-02-26T12:51:03;5.90;;;4.47;;
63653;SDS011;49809;47.418;19.080;2024-02-26T12:54:16;5.82;;;4.28;;
63653;SDS011;49809;47.418;19.080;2024-02-26T12:57:20;6.85;;;4.28;;
63653;SDS011;49809;47.418;19.080;2024-02-26T13:00:26;4.95;;;3.85;;
63653;SDS011;49809;47.418;19.080;2024-02-26T13:03:33;4.65;;;3.67;;
63653;SDS011;49809;47.418;19.080;2024-02-26T13:06:39;5.43;;;4.20;;
63653;SDS011;49809;47.418;19.080;2024-02-26T13:09:44;6.55;;;3.92;;
63653;SDS011;49809;47.418;19.080;2024-02-26T13:12:54;4.53;;;4.12;;
63653;SDS011;49809;47.418;19.080;2024-02-26T13:16:04;5.03;;;4.17;;
63653;SDS011;49809;47.418;19.080;2024-02-26T13:19:11;5.22;;;4.22;;
63653;SDS011;49809;47.418;19.080;2024-02-26T13:22:20;5.07;;;4.40;;
63653;SDS011;49809;47.418;19.080;2024-02-26T13:25:29;5.37;;;3.97;;
63653;SDS011;49809;47.418;19.080;2024-02-26T13:31:39;6.57;;;4.60;;
63653;SDS011;49809;47.418;19.080;2024-02-26T13:34:49;6.82;;;4.47;;
63653;SDS011;49809;47.418;19.080;2024-02-26T13:37:52;6.07;;;5.20;;
63653;SDS011;49809;47.418;19.080;2024-02-26T13:40:55;6.35;;;5.20;;
63653;SDS011;49809;47.418;19.080;2024-02-26T13:44:01;6.97;;;5.50;;
63653;SDS011;49809;47.418;19.080;2024-02-26T13:47:06;6.78;;;5.10;;
63653;SDS011;49809;47.418;19.080;2024-02-26T13:50:12;6.70;;;5.18;;
63653;SDS011;49809;47.418;19.080;2024-02-26T13:53:15;6.62;;;4.68;;
63653;SDS011;49809;47.418;19.080;2024-02-26T13:56:21;6.22;;;5.37;;
63653;SDS011;49809;47.418;19.080;2024-02-26T13:59:28;8.38;;;5.10;;
63653;SDS011;49809;47.418;19.080;2024-02-26T14:02:36;10.73;;;5.80;;
63653;SDS011;49809;47.418;19.080;2024-02-26T14:05:43;9.30;;;5.57;;
63653;SDS011;49809;47.418;19.080;2024-02-26T14:09:26;7.70;;;6.07;;
63653;SDS011;49809;47.418;19.080;2024-02-26T14:12:46;10.48;;;6.32;;
63653;SDS011;49809;47.418;19.080;2024-02-26T14:16:27;8.90;;;6.45;;
63653;SDS011;49809;47.418;19.080;2024-02-26T14:20:17;6.65;;;5.95;;
63653;SDS011;49809;47.418;19.080;2024-02-26T14:23:42;8.55;;;6.25;;
63653;SDS011;49809;47.418;19.080;2024-02-26T14:27:12;10.73;;;6.80;;
63653;SDS011;49809;47.418;19.080;2024-02-26T14:30:44;13.25;;;7.40;;
63653;SDS011;49809;47.418;19.080;2024-02-26T14:33:49;8.70;;;6.62;;
63653;SDS011;49809;47.418;19.080;2024-02-26T14:36:56;9.82;;;6.60;;
63653;SDS011;49809;47.418;19.080;2024-02-26T14:39:59;8.57;;;5.90;;
63653;SDS011;49809;47.418;19.080;2024-02-26T14:43:02;9.00;;;6.37;;
63653;SDS011;49809;47.418;19.080;2024-02-26T14:46:09;8.63;;;6.65;;
63653;SDS011;49809;47.418;19.080;2024-02-26T14:49:12;9.38;;;6.35;;
63653;SDS011;49809;47.418;19.080;2024-02-26T14:52:16;11.23;;;6.62;;
63653;SDS011;49809;47.418;19.080;2024-02-26T14:55:24;14.00;;;6.57;;
63653;SDS011;49809;47.418;19.080;2024-02-26T14:58:27;9.90;;;6.35;;
63653;SDS011;49809;47.418;19.080;2024-02-26T15:01:30;9.15;;;6.43;;
63653;SDS011;49809;47.418;19.080;2024-02-26T15:04:33;10.00;;;6.07;;
63653;SDS011;49809;47.418;19.080;2024-02-26T15:07:38;9.88;;;6.65;;
63653;SDS011;49809;47.418;19.080;2024-02-26T15:10:44;8.00;;;5.72;;
63653;SDS011;49809;47.418;19.080;2024-02-26T15:13:53;8.88;;;6.07;;
63653;SDS011;49809;47.418;19.080;2024-02-26T15:16:57;9.18;;;6.28;;
63653;SDS011;49809;47.418;19.080;2024-02-26T15:20:00;9.45;;;6.20;;
63653;SDS011;49809;47.418;19.080;2024-02-26T15:23:15;9.60;;;6.30;;
63653;SDS011;49809;47.418;19.080;2024-02-26T15:26:20;12.85;;;6.32;;
63653;SDS011;49809;47.418;19.080;2024-02-26T15:29:46;14.77;;;8.50;;
63653;SDS011;49809;47.418;19.080;2024-02-26T15:32:50;16.77;;;8.77;;
63653;SDS011;49809;47.418;19.080;2024-02-26T15:35:55;14.00;;;8.20;;
63653;SDS011;49809;47.418;19.080;2024-02-26T15:39:07;14.30;;;7.60;;
63653;SDS011;49809;47.418;19.080;2024-02-26T15:42:11;16.45;;;8.50;;
63653;SDS011;49809;47.418;19.080;2024-02-26T15:45:24;15.05;;;7.72;;
63653;SDS011;49809;47.418;19.080;2024-02-26T15:48:57;13.25;;;7.50;;
63653;SDS011;49809;47.418;19.080;2024-02-26T15:52:02;13.07;;;7.95;;
63653;SDS011;49809;47.418;19.080;2024-02-26T15:55:07;12.65;;;8.23;;
63653;SDS011;49809;47.418;19.080;2024-02-26T15:58:47;14.25;;;8.75;;
63653;SDS011;49809;47.418;19.080;2024-02-26T16:05:32;13.88;;;9.15;;
63653;SDS011;49809;47.418;19.080;2024-02-26T16:08:42;15.57;;;9.43;;
63653;SDS011;49809;47.418;19.080;2024-02-26T16:11:59;15.68;;;10.25;;
63653;SDS011;49809;47.418;19.080;2024-02-26T16:15:08;17.65;;;10.82;;
63653;SDS011;49809;47.418;19.080;2024-02-26T16:18:15;16.83;;;11.70;;
63653;SDS011;49809;47.418;19.080;2024-02-26T16:21:30;17.67;;;11.43;;
63653;SDS011;49809;47.418;19.080;2024-02-26T16:24:38;21.02;;;12.63;;
63653;SDS011;49809;47.418;19.080;2024-02-26T16:27:42;22.05;;;12.50;;
63653;SDS011;49809;47.418;19.080;2024-02-26T16:31:10;19.10;;;11.75;;
63653;SDS011;49809;47.418;19.080;2024-02-26T16:34:54;19.27;;;11.10;;
63653;SDS011;49809;47.418;19.080;2024-02-26T16:38:43;19.85;;;11.65;;
63653;SDS011;49809;47.418;19.080;2024-02-26T16:42:41;20.83;;;13.35;;
63653;SDS011;49809;47.418;19.080;2024-02-26T16:46:59;19.00;;;13.00;;
63653;SDS011;49809;47.418;19.080;2024-02-26T16:50:35;20.88;;;12.85;;
63653;SDS011;49809;47.418;19.080;2024-02-26T16:54:15;25.15;;;13.18;;
63653;SDS011;49809;47.418;19.080;2024-02-26T17:06:52;37.97;;;18.00;;
63653;SDS011;49809;47.418;19.080;2024-02-26T17:19:32;39.88;;;20.02;;
63653;SDS011;49809;47.418;19.080;2024-02-26T17:23:01;39.72;;;18.58;;
63653;SDS011;49809;47.418;19.080;2024-02-26T17:30:12;38.92;;;19.67;;
63653;SDS011;49809;47.418;19.080;2024-02-26T17:33:35;37.60;;;19.12;;
63653;SDS011;49809;47.418;19.080;2024-02-26T17:37:03;40.63;;;20.23;;
63653;SDS011;49809;47.418;19.080;2024-02-26T17:44:37;40.20;;;21.10;;
63653;SDS011;49809;47.418;19.080;2024-02-26T17:47:46;38.13;;;20.23;;
63653;SDS011;49809;47.418;19.080;2024-02-26T17:51:18;41.75;;;21.23;;
63653;SDS011;49809;47.418;19.080;2024-02-26T17:54:52;41.95;;;21.00;;
63653;SDS011;49809;47.418;19.080;2024-02-26T18:02:03;39.75;;;19.70;;
63653;SDS011;49809;47.418;19.080;2024-02-26T18:05:08;44.60;;;21.62;;
63653;SDS011;49809;47.418;19.080;2024-02-26T18:08:20;41.37;;;21.27;;
63653;SDS011;49809;47.418;19.080;2024-02-26T18:11:30;38.22;;;20.50;;
63653;SDS011;49809;47.418;19.080;2024-02-26T18:19:29;37.45;;;21.10;;
63653;SDS011;49809;47.418;19.080;2024-02-26T18:22:36;35.25;;;20.75;;
63653;SDS011;49809;47.418;19.080;2024-02-26T18:26:02;38.72;;;20.55;;
63653;SDS011;49809;47.418;19.080;2024-02-26T18:29:22;37.78;;;20.98;;
63653;SDS011;49809;47.418;19.080;2024-02-26T18:36:12;52.53;;;27.25;;
63653;SDS011;49809;47.418;19.080;2024-02-26T18:43:39;41.37;;;22.75;;
63653;SDS011;49809;47.418;19.080;2024-02-26T18:46:44;45.30;;;24.45;;
63653;SDS011;49809;47.418;19.080;2024-02-26T18:49:50;48.97;;;28.52;;
63653;SDS011;49809;47.418;19.080;2024-02-26T18:52:56;51.95;;;27.92;;
63653;SDS011;49809;47.418;19.080;2024-02-26T18:56:07;46.13;;;26.50;;
63653;SDS011;49809;47.418;19.080;2024-02-26T18:59:13;46.00;;;25.55;;
63653;SDS011;49809;47.418;19.080;2024-02-26T19:02:38;47.65;;;26.45;;
63653;SDS011;49809;47.418;19.080;2024-02-26T19:06:18;44.67;;;24.73;;
63653;SDS011;49809;47.418;19.080;2024-02-26T19:13:40;47.00;;;25.35;;
63653;SDS011;49809;47.418;19.080;2024-02-26T19:16:46;44.70;;;26.00;;
63653;SDS011;49809;47.418;19.080;2024-02-26T19:19:52;45.72;;;25.73;;
63653;SDS011;49809;47.418;19.080;2024-02-26T19:22:56;51.88;;;28.30;;
63653;SDS011;49809;47.418;19.080;2024-02-26T19:26:03;50.97;;;26.52;;
63653;SDS011;49809;47.418;19.080;2024-02-26T19:29:13;49.65;;;26.02;;
63653;SDS011;49809;47.418;19.080;2024-02-26T19:32:39;46.90;;;24.42;;
63653;SDS011;49809;47.418;19.080;2024-02-26T19:35:51;53.83;;;26.65;;
63653;SDS011;49809;47.418;19.080;2024-02-26T19:39:03;53.58;;;26.30;;
63653;SDS011;49809;47.418;19.080;2024-02-26T19:42:12;48.63;;;25.58;;
63653;SDS011;49809;47.418;19.080;2024-02-26T19:45:22;48.75;;;25.50;;
63653;SDS011;49809;47.418;19.080;2024-02-26T19:48:46;46.55;;;24.50;;
63653;SDS011;49809;47.418;19.080;2024-02-26T19:51:50;47.42;;;25.23;;
63653;SDS011;49809;47.418;19.080;2024-02-26T19:55:00;44.10;;;23.98;;
63653;SDS011;49809;47.418;19.080;2024-02-26T19:58:08;46.27;;;24.83;;
63653;SDS011;49809;47.418;19.080;2024-02-26T20:01:16;48.63;;;24.17;;
63653;SDS011;49809;47.418;19.080;2024-02-26T20:08:32;42.35;;;22.80;;
63653;SDS011;49809;47.418;19.080;2024-02-26T20:16:04;35.95;;;21.02;;
63653;SDS011;49809;47.418;19.080;2024-02-26T20:19:12;43.38;;;22.40;;
63653;SDS011;49809;47.418;19.080;2024-02-26T20:22:15;45.85;;;23.05;;
63653;SDS011;49809;47.418;19.080;2024-02-26T20:25:20;42.30;;;22.13;;
63653;SDS011;49809;47.418;19.080;2024-02-26T20:28:23;42.58;;;21.55;;
63653;SDS011;49809;47.418;19.080;2024-02-26T20:31:26;36.22;;;21.40;;
63653;SDS011;49809;47.418;19.080;2024-02-26T20:34:32;37.95;;;20.95;;
63653;SDS011;49809;47.418;19.080;2024-02-26T20:37:38;35.88;;;20.45;;
63653;SDS011;49809;47.418;19.080;2024-02-26T20:40:46;34.95;;;19.60;;
63653;SDS011;49809;47.418;19.080;2024-02-26T20:43:53;35.70;;;19.58;;
63653;SDS011;49809;47.418;19.080;2024-02-26T20:47:17;36.63;;;18.45;;
63653;SDS011;49809;47.418;19.080;2024-02-26T20:50:21;34.58;;;19.58;;
63653;SDS011;49809;47.418;19.080;2024-02-26T20:53:27;37.22;;;19.55;;
63653;SDS011;49809;47.418;19.080;2024-02-26T20:56:55;37.80;;;19.33;;
63653;SDS011;49809;47.418;19.080;2024-02-26T21:00:03;36.67;;;19.05;;
63653;SDS011;49809;47.418;19.080;2024-02-26T21:03:35;38.75;;;20.17;;
63653;SDS011;49809;47.418;19.080;2024-02-26T21:07:31;37.08;;;18.98;;
63653;SDS011;49809;47.418;19.080;2024-02-26T21:10:41;41.17;;;20.85;;
63653;SDS011;49809;47.418;19.080;2024-02-26T21:13:48;36.33;;;20.40;;
63653;SDS011;49809;47.418;19.080;2024-02-26T21:17:06;36.95;;;20.77;;
63653;SDS011;49809;47.418;19.080;2024-02-26T21:20:12;35.37;;;20.57;;
63653;SDS011;49809;47.418;19.080;2024-02-26T21:23:20;37.80;;;21.10;;
63653;SDS011;49809;47.418;19.080;2024-02-26T21:26:26;43.53;;;23.08;;
63653;SDS011;49809;47.418;19.080;2024-02-26T21:29:33;41.47;;;21.30;;
63653;SDS011;49809;47.418;19.080;2024-02-26T21:32:59;43.47;;;22.77;;
63653;SDS011;49809;47.418;19.080;2024-02-26T21:36:06;46.55;;;23.20;;
63653;SDS011;49809;47.418;19.080;2024-02-26T21:39:38;44.03;;;23.85;;
63653;SDS011;49809;47.418;19.080;2024-02-26T21:43:01;47.15;;;24.98;;
63653;SDS011;49809;47.418;19.080;2024-02-26T21:51:17;46.90;;;25.15;;
63653;SDS011;49809;47.418;19.080;2024-02-26T21:54:46;50.38;;;25.70;;
63653;SDS011;49809;47.418;19.080;2024-02-26T21:57:51;49.65;;;27.27;;
63653;SDS011;49809;47.418;19.080;2024-02-26T22:01:00;50.67;;;26.48;;
63653;SDS011;49809;47.418;19.080;2024-02-26T22:04:27;49.83;;;26.25;;
63653;SDS011;49809;47.418;19.080;2024-02-26T22:07:55;52.58;;;26.55;;
63653;SDS011;49809;47.418;19.080;2024-02-26T22:11:41;58.83;;;28.05;;
63653;SDS011;49809;47.418;19.080;2024-02-26T22:15:07;57.50;;;28.98;;
63653;SDS011;49809;47.418;19.080;2024-02-26T22:18:36;56.70;;;29.35;;
63653;SDS011;49809;47.418;19.080;2024-02-26T22:22:02;59.30;;;30.80;;
63653;SDS011;49809;47.418;19.080;2024-02-26T22:25:39;63.40;;;30.53;;
63653;SDS011;49809;47.418;19.080;2024-02-26T22:29:10;56.33;;;30.02;;
63653;SDS011;49809;47.418;19.080;2024-02-26T22:32:47;57.53;;;29.50;;
63653;SDS011;49809;47.418;19.080;2024-02-26T22:36:11;54.13;;;29.23;;
63653;SDS011;49809;47.418;19.080;2024-02-26T22:43:35;59.28;;;28.58;;
63653;SDS011;49809;47.418;19.080;2024-02-26T22:47:05;57.72;;;29.55;;
63653;SDS011;49809;47.418;19.080;2024-02-26T22:50:17;58.13;;;28.40;;
63653;SDS011;49809;47.418;19.080;2024-02-26T22:53:22;57.95;;;30.67;;
63653;SDS011;49809;47.418;19.080;2024-02-26T22:59:31;61.53;;;31.85;;
63653;SDS011;49809;47.418;19.080;2024-02-26T23:02:58;66.80;;;33.90;;
63653;SDS011;49809;47.418;19.080;2024-02-26T23:10:27;67.20;;;32.35;;
63653;SDS011;49809;47.418;19.080;2024-02-26T23:14:02;57.60;;;31.15;;
63653;SDS011;49809;47.418;19.080;2024-02-26T23:17:46;61.85;;;30.37;;
63653;SDS011;49809;47.418;19.080;2024-02-26T23:21:28;58.53;;;30.10;;
63653;SDS011;49809;47.418;19.080;2024-02-26T23:25:12;57.08;;;31.20;;
63653;SDS011;49809;47.418;19.080;2024-02-26T23:28:26;55.12;;;30.17;;
63653;SDS011;49809;47.418;19.080;2024-02-26T23:31:31;59.80;;;31.42;;
63653;SDS011;49809;47.418;19.080;2024-02-26T23:34:37;57.10;;;30.40;;
63653;SDS011;49809;47.418;19.080;2024-02-26T23:37:43;57.47;;;30.62;;
63653;SDS011;49809;47.418;19.080;2024-02-26T23:40:53;56.00;;;30.95;;
63653;SDS011;49809;47.418;19.080;2024-02-26T23:43:58;55.78;;;30.55;;
63653;SDS011;49809;47.418;19.080;2024-02-26T23:47:04;56.60;;;29.27;;
63653;SDS011;49809;47.418;19.080;2024-02-26T23:50:46;53.85;;;28.98;;
63653;SDS011;49809;47.418;19.080;2024-02-26T23:53:55;55.92;;;28.33;;
63653;SDS011;49809;47.418;19.080;2024-02-26T23:57:00;57.62;;;29.92;;
